Terminal Aerodrome Forecast
Issued by NWS Binghamton, NY

Home | Current Version | Previous Version | Text Only | Print | Product List | Glossary On
Versions: 1 2 3 4 5 6 7 8 9 10 11 12 13 14 15 16 17 18 19 20 21 22 23
616
FTUS41 KBGM 101137
TAFAVP
TAF
KAVP 101137Z 1012/1112 25010KT P6SM OVC050
     FM101700 27011KT P6SM OVC040
      TEMPO 1017/1020 -SHSN
     FM110000 28006KT P6SM OVC035=

USA.gov is the U.S. government's official web portal to all federal, state and local government web resources and services.